sensor_id;sensor_type;location;lat;lon;timestamp;pressure;altitude;pressure_sealevel;temperature;humidity
51781;BME280;37844;57.126;24.288;2023-02-21T00:01:27;98357.25;;;2.01;100.00
51781;BME280;37844;57.126;24.288;2023-02-21T00:04:21;98361.50;;;2.03;100.00
51781;BME280;37844;57.126;24.288;2023-02-21T00:07:15;98363.19;;;2.01;100.00
51781;BME280;37844;57.126;24.288;2023-02-21T00:10:11;98360.66;;;2.01;100.00
51781;BME280;37844;57.126;24.288;2023-02-21T00:13:05;98362.31;;;1.99;100.00
51781;BME280;37844;57.126;24.288;2023-02-21T00:15:59;98358.09;;;2.01;100.00
51781;BME280;37844;57.126;24.288;2023-02-21T00:18:52;98365.78;;;2.04;100.00
51781;BME280;37844;57.126;24.288;2023-02-21T00:21:47;98372.53;;;2.04;100.00
51781;BME280;37844;57.126;24.288;2023-02-21T00:24:40;98379.31;;;2.02;100.00
51781;BME280;37844;57.126;24.288;2023-02-21T00:27:34;98384.25;;;1.88;100.00
51781;BME280;37844;57.126;24.288;2023-02-21T00:30:28;98396.88;;;1.79;100.00
51781;BME280;37844;57.126;24.288;2023-02-21T00:33:22;98389.78;;;1.50;100.00
51781;BME280;37844;57.126;24.288;2023-02-21T00:36:16;98393.81;;;1.31;100.00
51781;BME280;37844;57.126;24.288;2023-02-21T00:39:10;98395.34;;;1.20;100.00
51781;BME280;37844;57.126;24.288;2023-02-21T00:42:04;98398.69;;;1.14;100.00
51781;BME280;37844;57.126;24.288;2023-02-21T00:44:58;98402.03;;;1.13;100.00
51781;BME280;37844;57.126;24.288;2023-02-21T00:47:51;98399.41;;;1.05;100.00
51781;BME280;37844;57.126;24.288;2023-02-21T00:50:45;98397.63;;;0.98;100.00
51781;BME280;37844;57.126;24.288;2023-02-21T00:53:39;98399.38;;;1.04;100.00
51781;BME280;37844;57.126;24.288;2023-02-21T00:56:33;98405.25;;;1.00;100.00
51781;BME280;37844;57.126;24.288;2023-02-21T00:59:27;98409.44;;;0.96;100.00
51781;BME280;37844;57.126;24.288;2023-02-21T01:02:21;98413.63;;;0.93;100.00
51781;BME280;37844;57.126;24.288;2023-02-21T01:05:15;98417.00;;;0.95;100.00
51781;BME280;37844;57.126;24.288;2023-02-21T01:08:09;98410.28;;;0.97;100.00
51781;BME280;37844;57.126;24.288;2023-02-21T01:11:03;98407.78;;;1.00;100.00
51781;BME280;37844;57.126;24.288;2023-02-21T01:13:57;98405.16;;;0.94;100.00
51781;BME280;37844;57.126;24.288;2023-02-21T01:16:51;98411.94;;;0.93;100.00
51781;BME280;37844;57.126;24.288;2023-02-21T01:19:45;98407.69;;;0.94;100.00
51781;BME280;37844;57.126;24.288;2023-02-21T01:22:39;98411.09;;;0.94;100.00
51781;BME280;37844;57.126;24.288;2023-02-21T01:25:33;98417.00;;;0.95;100.00
51781;BME280;37844;57.126;24.288;2023-02-21T01:28:27;98412.00;;;0.99;100.00
51781;BME280;37844;57.126;24.288;2023-02-21T01:31:20;98426.41;;;1.02;100.00
51781;BME280;37844;57.126;24.288;2023-02-21T01:34:14;98407.84;;;1.04;100.00
51781;BME280;37844;57.126;24.288;2023-02-21T01:37:08;98409.53;;;1.02;100.00
51781;BME280;37844;57.126;24.288;2023-02-21T01:40:02;98411.28;;;1.08;100.00
51781;BME280;37844;57.126;24.288;2023-02-21T01:42:56;98413.91;;;1.14;100.00
51781;BME280;37844;57.126;24.288;2023-02-21T01:45:50;98413.94;;;1.17;100.00
51781;BME280;37844;57.126;24.288;2023-02-21T01:48:47;98414.72;;;1.12;100.00
51781;BME280;37844;57.126;24.288;2023-02-21T01:51:42;98420.59;;;1.11;100.00
51781;BME280;37844;57.126;24.288;2023-02-21T01:54:38;98424.97;;;1.21;100.00
51781;BME280;37844;57.126;24.288;2023-02-21T01:57:34;98427.50;;;1.21;100.00
51781;BME280;37844;57.126;24.288;2023-02-21T02:00:28;98425.78;;;1.17;100.00
51781;BME280;37844;57.126;24.288;2023-02-21T02:03:22;98439.25;;;1.13;100.00
51781;BME280;37844;57.126;24.288;2023-02-21T02:06:16;98442.56;;;1.09;100.00
51781;BME280;37844;57.126;24.288;2023-02-21T02:09:28;98448.47;;;1.09;100.00
51781;BME280;37844;57.126;24.288;2023-02-21T02:12:34;98451.97;;;1.14;100.00
51781;BME280;37844;57.126;24.288;2023-02-21T02:15:14;98457.00;;;1.13;100.00
51781;BME280;37844;57.126;24.288;2023-02-21T02:31:38;98472.41;;;1.26;100.00
51781;BME280;37844;57.126;24.288;2023-02-21T02:39:45;98486.97;;;1.38;100.00
51781;BME280;37844;57.126;24.288;2023-02-21T02:45:24;98489.44;;;1.35;100.00
51781;BME280;37844;57.126;24.288;2023-02-21T02:48:05;98499.56;;;1.32;100.00
51781;BME280;37844;57.126;24.288;2023-02-21T02:50:44;98502.84;;;1.23;100.00
51781;BME280;37844;57.126;24.288;2023-02-21T02:53:24;98504.41;;;1.15;100.00
51781;BME280;37844;57.126;24.288;2023-02-21T02:56:00;98503.50;;;1.13;100.00
51781;BME280;37844;57.126;24.288;2023-02-21T02:58:37;98513.59;;;1.07;100.00
51781;BME280;37844;57.126;24.288;2023-02-21T03:01:32;98522.06;;;1.09;100.00
51781;BME280;37844;57.126;24.288;2023-02-21T03:06:56;98532.16;;;1.04;100.00
51781;BME280;37844;57.126;24.288;2023-02-21T03:09:36;98538.91;;;1.04;100.00
51781;BME280;37844;57.126;24.288;2023-02-21T03:17:31;98558.19;;;0.93;100.00
51781;BME280;37844;57.126;24.288;2023-02-21T03:20:09;98564.97;;;0.94;100.00
51781;BME280;37844;57.126;24.288;2023-02-21T03:22:45;98558.06;;;0.87;100.00
51781;BME280;37844;57.126;24.288;2023-02-21T03:25:21;98571.59;;;0.86;100.00
51781;BME280;37844;57.126;24.288;2023-02-21T03:27:57;98571.69;;;0.92;100.00
51781;BME280;37844;57.126;24.288;2023-02-21T03:30:34;98581.88;;;0.93;100.00
51781;BME280;37844;57.126;24.288;2023-02-21T03:33:09;98585.06;;;0.83;100.00
51781;BME280;37844;57.126;24.288;2023-02-21T03:35:45;98593.50;;;0.82;100.00
51781;BME280;37844;57.126;24.288;2023-02-21T03:38:20;98602.84;;;0.84;100.00
51781;BME280;37844;57.126;24.288;2023-02-21T03:40:56;98593.63;;;0.90;100.00
51781;BME280;37844;57.126;24.288;2023-02-21T03:43:31;98604.53;;;0.84;100.00
51781;BME280;37844;57.126;24.288;2023-02-21T03:46:06;98609.44;;;0.75;100.00
51781;BME280;37844;57.126;24.288;2023-02-21T03:48:42;98607.81;;;0.78;100.00
51781;BME280;37844;57.126;24.288;2023-02-21T03:51:17;98611.22;;;0.79;100.00
51781;BME280;37844;57.126;24.288;2023-02-21T03:53:53;98620.50;;;0.80;100.00
51781;BME280;37844;57.126;24.288;2023-02-21T03:56:28;98633.28;;;0.84;100.00
51781;BME280;37844;57.126;24.288;2023-02-21T03:59:03;98631.03;;;0.53;100.00
51781;BME280;37844;57.126;24.288;2023-02-21T04:01:39;98632.66;;;0.51;100.00
51781;BME280;37844;57.126;24.288;2023-02-21T04:04:14;98654.06;;;0.65;100.00
51781;BME280;37844;57.126;24.288;2023-02-21T04:06:49;98655.75;;;0.66;100.00
51781;BME280;37844;57.126;24.288;2023-02-21T04:09:25;98661.72;;;0.67;100.00
51781;BME280;37844;57.126;24.288;2023-02-21T04:12:01;98669.13;;;0.59;100.00
51781;BME280;37844;57.126;24.288;2023-02-21T04:14:36;98678.47;;;0.60;100.00
51781;BME280;37844;57.126;24.288;2023-02-21T04:17:11;98694.28;;;0.48;100.00
51781;BME280;37844;57.126;24.288;2023-02-21T04:19:47;98702.09;;;0.57;100.00
51781;BME280;37844;57.126;24.288;2023-02-21T04:22:22;98704.44;;;0.50;100.00
51781;BME280;37844;57.126;24.288;2023-02-21T04:24:57;98722.22;;;0.51;100.00
51781;BME280;37844;57.126;24.288;2023-02-21T04:27:33;98737.13;;;0.36;100.00
51781;BME280;37844;57.126;24.288;2023-02-21T04:30:09;98740.53;;;0.38;100.00
51781;BME280;37844;57.126;24.288;2023-02-21T04:32:44;98748.13;;;0.38;100.00
51781;BME280;37844;57.126;24.288;2023-02-21T04:35:20;98758.69;;;0.18;100.00
51781;BME280;37844;57.126;24.288;2023-02-21T04:37:55;98758.56;;;0.12;100.00
51781;BME280;37844;57.126;24.288;2023-02-21T04:40:30;98769.72;;;0.20;100.00
51781;BME280;37844;57.126;24.288;2023-02-21T04:43:06;98773.03;;;0.18;100.00
51781;BME280;37844;57.126;24.288;2023-02-21T04:45:41;98782.56;;;0.28;100.00
51781;BME280;37844;57.126;24.288;2023-02-21T04:48:17;98794.38;;;0.28;100.00
51781;BME280;37844;57.126;24.288;2023-02-21T04:50:52;98797.53;;;0.19;100.00
51781;BME280;37844;57.126;24.288;2023-02-21T04:53:27;98812.84;;;0.24;100.00
51781;BME280;37844;57.126;24.288;2023-02-21T04:56:03;98829.09;;;0.32;100.00
51781;BME280;37844;57.126;24.288;2023-02-21T04:58:38;98819.47;;;0.17;100.00
51781;BME280;37844;57.126;24.288;2023-02-21T05:01:14;98829.53;;;0.14;100.00
51781;BME280;37844;57.126;24.288;2023-02-21T05:03:50;98837.13;;;0.14;100.00
51781;BME280;37844;57.126;24.288;2023-02-21T05:06:26;98846.50;;;-0.17;100.00
51781;BME280;37844;57.126;24.288;2023-02-21T05:09:02;98853.31;;;-0.16;100.00
51781;BME280;37844;57.126;24.288;2023-02-21T05:11:37;98866.03;;;-0.13;100.00
51781;BME280;37844;57.126;24.288;2023-02-21T05:14:13;98880.91;;;-0.25;100.00
51781;BME280;37844;57.126;24.288;2023-02-21T05:16:48;98899.59;;;-0.20;100.00
51781;BME280;37844;57.126;24.288;2023-02-21T05:19:24;98908.28;;;-0.10;100.00
51781;BME280;37844;57.126;24.288;2023-02-21T05:22:02;98908.38;;;-0.07;100.00
51781;BME280;37844;57.126;24.288;2023-02-21T05:24:40;98920.09;;;-0.11;100.00
51781;BME280;37844;57.126;24.288;2023-02-21T05:27:19;98944.44;;;-0.16;100.00
51781;BME280;37844;57.126;24.288;2023-02-21T05:29:55;98943.72;;;-0.12;100.00
51781;BME280;37844;57.126;24.288;2023-02-21T05:32:30;98965.63;;;-0.12;100.00
51781;BME280;37844;57.126;24.288;2023-02-21T05:35:06;98978.09;;;-0.20;100.00
51781;BME280;37844;57.126;24.288;2023-02-21T05:37:41;98978.00;;;-0.53;100.00
51781;BME280;37844;57.126;24.288;2023-02-21T05:40:17;98998.41;;;-0.49;100.00
51781;BME280;37844;57.126;24.288;2023-02-21T05:42:52;99009.16;;;-0.56;100.00
51781;BME280;37844;57.126;24.288;2023-02-21T05:45:28;99021.09;;;-0.52;100.00
51781;BME280;37844;57.126;24.288;2023-02-21T05:48:03;99034.81;;;-0.44;100.00
51781;BME280;37844;57.126;24.288;2023-02-21T05:50:39;99034.19;;;-0.36;100.00
51781;BME280;37844;57.126;24.288;2023-02-21T05:53:14;99054.41;;;-0.38;100.00
51781;BME280;37844;57.126;24.288;2023-02-21T05:55:50;99061.88;;;-0.41;100.00
51781;BME280;37844;57.126;24.288;2023-02-21T05:58:25;99065.16;;;-0.45;100.00
51781;BME280;37844;57.126;24.288;2023-02-21T06:01:00;99078.06;;;-0.36;100.00
51781;BME280;37844;57.126;24.288;2023-02-21T06:03:36;99090.13;;;-0.56;100.00
51781;BME280;37844;57.126;24.288;2023-02-21T06:06:13;99092.75;;;-0.80;100.00
51781;BME280;37844;57.126;24.288;2023-02-21T06:08:49;99114.09;;;-0.72;100.00
51781;BME280;37844;57.126;24.288;2023-02-21T06:11:25;99105.41;;;-0.80;100.00
51781;BME280;37844;57.126;24.288;2023-02-21T06:14:02;99119.63;;;-0.83;100.00
51781;BME280;37844;57.126;24.288;2023-02-21T06:16:38;99117.22;;;-1.06;100.00
51781;BME280;37844;57.126;24.288;2023-02-21T06:19:13;99132.38;;;-1.06;100.00
51781;BME280;37844;57.126;24.288;2023-02-21T06:21:50;99133.69;;;-0.92;100.00
51781;BME280;37844;57.126;24.288;2023-02-21T06:24:25;99144.59;;;-0.93;100.00
51781;BME280;37844;57.126;24.288;2023-02-21T06:27:01;99159.00;;;-0.92;100.00
51781;BME280;37844;57.126;24.288;2023-02-21T06:29:36;99158.06;;;-0.94;100.00
51781;BME280;37844;57.126;24.288;2023-02-21T06:32:11;99169.91;;;-1.18;100.00
51781;BME280;37844;57.126;24.288;2023-02-21T06:34:47;99184.63;;;-1.07;100.00
51781;BME280;37844;57.126;24.288;2023-02-21T06:37:22;99189.63;;;-1.08;100.00
51781;BME280;37844;57.126;24.288;2023-02-21T06:39:57;99201.66;;;-1.01;100.00
51781;BME280;37844;57.126;24.288;2023-02-21T06:42:33;99210.88;;;-1.03;100.00
51781;BME280;37844;57.126;24.288;2023-02-21T06:45:08;99222.34;;;-1.13;100.00
51781;BME280;37844;57.126;24.288;2023-02-21T06:47:50;99223.09;;;-1.15;100.00
51781;BME280;37844;57.126;24.288;2023-02-21T06:50:32;99233.88;;;-1.21;100.00
51781;BME280;37844;57.126;24.288;2023-02-21T06:53:08;99254.03;;;-1.22;100.00
51781;BME280;37844;57.126;24.288;2023-02-21T06:55:43;99263.22;;;-1.24;100.00
51781;BME280;37844;57.126;24.288;2023-02-21T06:58:19;99260.25;;;-1.13;100.00
51781;BME280;37844;57.126;24.288;2023-02-21T07:00:54;99268.25;;;-1.02;100.00
51781;BME280;37844;57.126;24.288;2023-02-21T07:03:29;99285.13;;;-1.01;100.00
51781;BME280;37844;57.126;24.288;2023-02-21T07:06:05;99297.69;;;-1.02;100.00
51781;BME280;37844;57.126;24.288;2023-02-21T07:08:40;99308.03;;;-1.20;100.00
51781;BME280;37844;57.126;24.288;2023-02-21T07:11:17;99316.22;;;-1.26;100.00
51781;BME280;37844;57.126;24.288;2023-02-21T07:13:52;99329.50;;;-1.32;100.00
51781;BME280;37844;57.126;24.288;2023-02-21T07:16:28;99346.00;;;-1.19;100.00
51781;BME280;37844;57.126;24.288;2023-02-21T07:19:04;99343.94;;;-1.07;100.00
51781;BME280;37844;57.126;24.288;2023-02-21T07:21:39;99356.19;;;-0.93;100.00
51781;BME280;37844;57.126;24.288;2023-02-21T07:24:15;99366.28;;;-0.95;100.00
51781;BME280;37844;57.126;24.288;2023-02-21T07:26:50;99383.41;;;-0.88;100.00
51781;BME280;37844;57.126;24.288;2023-02-21T07:29:26;99387.75;;;-0.83;100.00
51781;BME280;37844;57.126;24.288;2023-02-21T07:32:01;99410.50;;;-0.83;100.00
51781;BME280;37844;57.126;24.288;2023-02-21T07:34:36;99416.91;;;-0.93;100.00
51781;BME280;37844;57.126;24.288;2023-02-21T07:37:12;99425.53;;;-0.88;100.00
51781;BME280;37844;57.126;24.288;2023-02-21T07:39:48;99432.81;;;-0.96;100.00
51781;BME280;37844;57.126;24.288;2023-02-21T07:42:23;99441.81;;;-1.04;100.00
51781;BME280;37844;57.126;24.288;2023-02-21T07:44:58;99447.81;;;-1.23;100.00
51781;BME280;37844;57.126;24.288;2023-02-21T07:47:34;99461.13;;;-1.27;100.00
51781;BME280;37844;57.126;24.288;2023-02-21T07:50:09;99466.63;;;-1.16;100.00
51781;BME280;37844;57.126;24.288;2023-02-21T07:52:45;99470.97;;;-1.12;100.00
51781;BME280;37844;57.126;24.288;2023-02-21T07:55:20;99491.56;;;-1.03;100.00
51781;BME280;37844;57.126;24.288;2023-02-21T07:57:56;99492.97;;;-0.89;100.00
51781;BME280;37844;57.126;24.288;2023-02-21T08:00:31;99506.28;;;-0.93;100.00
51781;BME280;37844;57.126;24.288;2023-02-21T08:03:08;99517.75;;;-0.80;100.00
51781;BME280;37844;57.126;24.288;2023-02-21T08:05:46;99526.94;;;-0.82;100.00
51781;BME280;37844;57.126;24.288;2023-02-21T08:08:21;99537.91;;;-1.04;100.00
51781;BME280;37844;57.126;24.288;2023-02-21T08:10:57;99548.31;;;-0.96;100.00
51781;BME280;37844;57.126;24.288;2023-02-21T08:13:32;99554.78;;;-1.24;100.00
51781;BME280;37844;57.126;24.288;2023-02-21T08:16:08;99548.06;;;-1.23;100.00
51781;BME280;37844;57.126;24.288;2023-02-21T08:18:45;99557.44;;;-1.42;100.00
51781;BME280;37844;57.126;24.288;2023-02-21T08:21:21;99552.75;;;-1.33;100.00
51781;BME280;37844;57.126;24.288;2023-02-21T08:23:56;99560.66;;;-1.25;100.00
51781;BME280;37844;57.126;24.288;2023-02-21T08:26:31;99564.03;;;-1.03;100.00
51781;BME280;37844;57.126;24.288;2023-02-21T08:29:07;99583.72;;;-0.96;100.00
51781;BME280;37844;57.126;24.288;2023-02-21T08:31:43;99601.69;;;-1.11;100.00
51781;BME280;37844;57.126;24.288;2023-02-21T08:34:18;99615.25;;;-1.09;100.00
51781;BME280;37844;57.126;24.288;2023-02-21T08:36:54;99627.00;;;-1.10;100.00
51781;BME280;37844;57.126;24.288;2023-02-21T08:39:29;99635.91;;;-0.98;100.00
51781;BME280;37844;57.126;24.288;2023-02-21T08:42:06;99643.13;;;-0.87;100.00
51781;BME280;37844;57.126;24.288;2023-02-21T08:44:42;99646.53;;;-0.86;100.00
51781;BME280;37844;57.126;24.288;2023-02-21T08:47:17;99657.66;;;-0.61;100.00
51781;BME280;37844;57.126;24.288;2023-02-21T08:49:52;99665.44;;;-0.34;100.00
51781;BME280;37844;57.126;24.288;2023-02-21T08:52:28;99672.78;;;-0.19;100.00
51781;BME280;37844;57.126;24.288;2023-02-21T08:55:04;99687.69;;;-0.27;100.00
51781;BME280;37844;57.126;24.288;2023-02-21T08:57:39;99698.56;;;-0.30;100.00
51781;BME280;37844;57.126;24.288;2023-02-21T09:00:15;99705.22;;;-0.32;100.00
51781;BME280;37844;57.126;24.288;2023-02-21T09:02:50;99714.94;;;-0.43;100.00
51781;BME280;37844;57.126;24.288;2023-02-21T09:05:27;99713.16;;;-0.45;100.00
51781;BME280;37844;57.126;24.288;2023-02-21T09:08:02;99720.78;;;-0.44;100.00
51781;BME280;37844;57.126;24.288;2023-02-21T09:10:39;99724.91;;;-0.46;100.00
51781;BME280;37844;57.126;24.288;2023-02-21T09:13:21;99726.50;;;-0.48;100.00
51781;BME280;37844;57.126;24.288;2023-02-21T09:15:56;99722.38;;;-0.46;100.00
51781;BME280;37844;57.126;24.288;2023-02-21T09:18:31;99739.13;;;-0.49;100.00
51781;BME280;37844;57.126;24.288;2023-02-21T09:21:07;99743.88;;;-0.36;100.00
51781;BME280;37844;57.126;24.288;2023-02-21T09:23:42;99756.41;;;-0.39;100.00
51781;BME280;37844;57.126;24.288;2023-02-21T09:26:18;99756.53;;;-0.57;100.00
51781;BME280;37844;57.126;24.288;2023-02-21T09:28:53;99769.25;;;-0.34;100.00
51781;BME280;37844;57.126;24.288;2023-02-21T09:31:28;99777.50;;;-0.19;100.00
51781;BME280;37844;57.126;24.288;2023-02-21T09:34:04;99783.72;;;-0.32;100.00
51781;BME280;37844;57.126;24.288;2023-02-21T09:36:39;99794.03;;;-0.27;100.00
51781;BME280;37844;57.126;24.288;2023-02-21T09:39:14;99801.69;;;-0.26;100.00
51781;BME280;37844;57.126;24.288;2023-02-21T09:41:50;99816.38;;;-0.38;100.00
51781;BME280;37844;57.126;24.288;2023-02-21T09:44:27;99827.00;;;-0.66;100.00
51781;BME280;37844;57.126;24.288;2023-02-21T09:47:04;99837.88;;;-0.69;100.00
51781;BME280;37844;57.126;24.288;2023-02-21T09:49:41;99847.09;;;-0.69;100.00
51781;BME280;37844;57.126;24.288;2023-02-21T09:52:24;99851.72;;;-0.80;100.00
51781;BME280;37844;57.126;24.288;2023-02-21T09:55:06;99857.19;;;-0.71;100.00
51781;BME280;37844;57.126;24.288;2023-02-21T09:57:43;99865.28;;;-0.58;100.00
51781;BME280;37844;57.126;24.288;2023-02-21T10:00:21;99875.63;;;-0.54;100.00
51781;BME280;37844;57.126;24.288;2023-02-21T10:20:26;99934.44;;;-0.40;100.00
51781;BME280;37844;57.126;24.288;2023-02-21T10:23:06;99948.56;;;-0.26;100.00
51781;BME280;37844;57.126;24.288;2023-02-21T10:25:47;99950.28;;;-0.05;100.00
51781;BME280;37844;57.126;24.288;2023-02-21T10:28:23;99960.00;;;0.05;100.00
51781;BME280;37844;57.126;24.288;2023-02-21T10:30:59;99959.50;;;0.14;100.00
51781;BME280;37844;57.126;24.288;2023-02-21T10:33:37;99965.53;;;-0.04;100.00
51781;BME280;37844;57.126;24.288;2023-02-21T10:36:16;99972.22;;;-0.06;100.00
51781;BME280;37844;57.126;24.288;2023-02-21T10:39:02;99972.75;;;-0.13;100.00
51781;BME280;37844;57.126;24.288;2023-02-21T10:41:38;99981.69;;;-0.21;100.00
51781;BME280;37844;57.126;24.288;2023-02-21T10:44:25;99987.41;;;-0.06;100.00
51781;BME280;37844;57.126;24.288;2023-02-21T10:47:03;99992.06;;;0.05;100.00
51781;BME280;37844;57.126;24.288;2023-02-21T10:52:17;100008.00;;;0.22;100.00
51781;BME280;37844;57.126;24.288;2023-02-21T10:57:33;100014.59;;;0.18;100.00
51781;BME280;37844;57.126;24.288;2023-02-21T11:00:22;100018.81;;;-0.02;100.00
51781;BME280;37844;57.126;24.288;2023-02-21T11:03:01;100028.06;;;-0.03;100.00
51781;BME280;37844;57.126;24.288;2023-02-21T11:05:37;100037.94;;;-0.09;100.00
51781;BME280;37844;57.126;24.288;2023-02-21T11:08:13;100036.81;;;0.04;100.00
51781;BME280;37844;57.126;24.288;2023-02-21T11:10:48;100039.00;;;-0.04;100.00
51781;BME280;37844;57.126;24.288;2023-02-21T11:13:29;100052.72;;;-0.18;100.00
51781;BME280;37844;57.126;24.288;2023-02-21T11:16:37;100058.56;;;-0.38;100.00
51781;BME280;37844;57.126;24.288;2023-02-21T11:19:11;100064.13;;;-0.28;100.00
51781;BME280;37844;57.126;24.288;2023-02-21T11:21:52;100075.31;;;-0.23;100.00
51781;BME280;37844;57.126;24.288;2023-02-21T11:24:29;100087.78;;;-0.27;100.00
51781;BME280;37844;57.126;24.288;2023-02-21T11:27:04;100091.78;;;-0.13;100.00
51781;BME280;37844;57.126;24.288;2023-02-21T11:29:41;100092.66;;;-0.12;100.00
51781;BME280;37844;57.126;24.288;2023-02-21T11:32:25;100103.06;;;-0.06;100.00
51781;BME280;37844;57.126;24.288;2023-02-21T11:35:02;100111.41;;;-0.09;100.00
51781;BME280;37844;57.126;24.288;2023-02-21T11:40:33;100127.47;;;-0.08;100.00
51781;BME280;37844;57.126;24.288;2023-02-21T11:43:19;100141.03;;;0.12;100.00
51781;BME280;37844;57.126;24.288;2023-02-21T11:51:34;100142.13;;;0.36;100.00
51781;BME280;37844;57.126;24.288;2023-02-21T11:54:11;100145.28;;;0.50;100.00
51781;BME280;37844;57.126;24.288;2023-02-21T12:19:33;100204.06;;;0.61;100.00
51781;BME280;37844;57.126;24.288;2023-02-21T12:36:09;100239.56;;;0.61;100.00
51781;BME280;37844;57.126;24.288;2023-02-21T12:38:53;100239.50;;;0.59;100.00
51781;BME280;37844;57.126;24.288;2023-02-21T12:44:23;100258.97;;;0.41;100.00
51781;BME280;37844;57.126;24.288;2023-02-21T12:47:10;100260.84;;;0.27;100.00
51781;BME280;37844;57.126;24.288;2023-02-21T12:49:53;100264.06;;;0.05;100.00
51781;BME280;37844;57.126;24.288;2023-02-21T12:52:37;100284.09;;;0.18;100.00
51781;BME280;37844;57.126;24.288;2023-02-21T12:55:19;100295.81;;;0.16;100.00
51781;BME280;37844;57.126;24.288;2023-02-21T12:57:57;100296.34;;;0.27;100.00
51781;BME280;37844;57.126;24.288;2023-02-21T13:00:35;100303.81;;;0.24;100.00
51781;BME280;37844;57.126;24.288;2023-02-21T13:11:30;100341.97;;;-0.07;100.00
51781;BME280;37844;57.126;24.288;2023-02-21T13:14:08;100350.25;;;-0.11;100.00
51781;BME280;37844;57.126;24.288;2023-02-21T13:16:45;100351.84;;;0.05;100.00
51781;BME280;37844;57.126;24.288;2023-02-21T13:19:20;100365.47;;;0.07;100.00
51781;BME280;37844;57.126;24.288;2023-02-21T13:39:09;100384.41;;;-0.37;100.00
51781;BME280;37844;57.126;24.288;2023-02-21T13:41:50;100394.16;;;-0.45;100.00
51781;BME280;37844;57.126;24.288;2023-02-21T13:44:30;100391.03;;;-0.39;100.00
51781;BME280;37844;57.126;24.288;2023-02-21T13:58:21;100420.22;;;-0.79;100.00
51781;BME280;37844;57.126;24.288;2023-02-21T14:00:46;100421.16;;;-0.77;100.00
51781;BME280;37844;57.126;24.288;2023-02-21T14:08:45;100448.47;;;-0.71;100.00
51781;BME280;37844;57.126;24.288;2023-02-21T14:11:22;100452.34;;;-0.78;100.00
51781;BME280;37844;57.126;24.288;2023-02-21T14:14:03;100465.19;;;-0.90;100.00
51781;BME280;37844;57.126;24.288;2023-02-21T14:16:46;100474.66;;;-0.86;100.00
51781;BME280;37844;57.126;24.288;2023-02-21T14:19:24;100475.97;;;-0.77;100.00
51781;BME280;37844;57.126;24.288;2023-02-21T14:22:42;100478.97;;;-0.84;100.00
51781;BME280;37844;57.126;24.288;2023-02-21T14:25:05;100482.66;;;-0.94;100.00
51781;BME280;37844;57.126;24.288;2023-02-21T14:27:41;100490.19;;;-1.11;100.00
51781;BME280;37844;57.126;24.288;2023-02-21T14:30:25;100497.94;;;-1.08;100.00
51781;BME280;37844;57.126;24.288;2023-02-21T14:33:07;100508.91;;;-1.07;100.00
51781;BME280;37844;57.126;24.288;2023-02-21T14:35:50;100509.47;;;-1.27;100.00
51781;BME280;37844;57.126;24.288;2023-02-21T14:38:31;100521.69;;;-1.20;100.00
51781;BME280;37844;57.126;24.288;2023-02-21T14:43:54;100524.97;;;-1.21;100.00
51781;BME280;37844;57.126;24.288;2023-02-21T15:02:59;100562.41;;;-1.16;100.00
51781;BME280;37844;57.126;24.288;2023-02-21T15:05:44;100568.03;;;-1.05;100.00
51781;BME280;37844;57.126;24.288;2023-02-21T15:08:27;100576.16;;;-1.11;100.00
51781;BME280;37844;57.126;24.288;2023-02-21T15:11:02;100589.25;;;-1.18;100.00
51781;BME280;37844;57.126;24.288;2023-02-21T15:13:39;100594.91;;;-1.07;100.00
51781;BME280;37844;57.126;24.288;2023-02-21T15:16:15;100601.13;;;-1.02;100.00
51781;BME280;37844;57.126;24.288;2023-02-21T15:18:58;100605.94;;;-1.07;100.00
51781;BME280;37844;57.126;24.288;2023-02-21T15:21:34;100603.13;;;-1.11;100.00
51781;BME280;37844;57.126;24.288;2023-02-21T15:24:14;100612.19;;;-1.00;100.00
51781;BME280;37844;57.126;24.288;2023-02-21T15:26:49;100625.03;;;-0.97;100.00
51781;BME280;37844;57.126;24.288;2023-02-21T15:29:41;100632.63;;;-0.97;100.00
51781;BME280;37844;57.126;24.288;2023-02-21T15:32:17;100637.50;;;-0.85;100.00
51781;BME280;37844;57.126;24.288;2023-02-21T15:34:53;100648.16;;;-0.76;100.00
51781;BME280;37844;57.126;24.288;2023-02-21T15:37:28;100651.63;;;-0.74;100.00
51781;BME280;37844;57.126;24.288;2023-02-21T15:40:10;100654.94;;;-0.90;100.00
51781;BME280;37844;57.126;24.288;2023-02-21T15:42:48;100667.50;;;-0.91;100.00
51781;BME280;37844;57.126;24.288;2023-02-21T15:45:26;100672.72;;;-1.03;100.00
51781;BME280;37844;57.126;24.288;2023-02-21T15:48:03;100668.09;;;-0.95;100.00
51781;BME280;37844;57.126;24.288;2023-02-21T15:50:43;100676.91;;;-0.89;100.00
51781;BME280;37844;57.126;24.288;2023-02-21T15:53:21;100678.00;;;-0.85;100.00
51781;BME280;37844;57.126;24.288;2023-02-21T15:56:13;100679.03;;;-0.81;100.00
51781;BME280;37844;57.126;24.288;2023-02-21T15:59:09;100681.66;;;-0.80;100.00
51781;BME280;37844;57.126;24.288;2023-02-21T16:02:04;100682.94;;;-0.87;100.00
51781;BME280;37844;57.126;24.288;2023-02-21T16:04:42;100689.06;;;-0.83;100.00
51781;BME280;37844;57.126;24.288;2023-02-21T16:07:24;100693.25;;;-0.83;100.00
51781;BME280;37844;57.126;24.288;2023-02-21T16:10:03;100703.34;;;-0.83;100.00
51781;BME280;37844;57.126;24.288;2023-02-21T16:12:42;100706.16;;;-0.79;100.00
51781;BME280;37844;57.126;24.288;2023-02-21T16:15:28;100715.78;;;-0.73;100.00
51781;BME280;37844;57.126;24.288;2023-02-21T16:18:08;100718.47;;;-0.70;100.00
51781;BME280;37844;57.126;24.288;2023-02-21T16:20:45;100734.81;;;-0.65;100.00
51781;BME280;37844;57.126;24.288;2023-02-21T16:23:22;100743.47;;;-0.61;100.00
51781;BME280;37844;57.126;24.288;2023-02-21T16:28:54;100753.53;;;-0.76;100.00
51781;BME280;37844;57.126;24.288;2023-02-21T16:31:32;100764.03;;;-0.70;100.00